createdAt,value
2018-09-28T00:00:17.817Z,101160.11
2018-09-28T00:02:46.131Z,101157.72
2018-09-28T00:05:14.458Z,101145.45
2018-09-28T00:07:42.464Z,101159.88
2018-09-28T00:10:11.090Z,101141.81
2018-09-28T00:12:39.411Z,101139.95
2018-09-28T00:15:07.791Z,101128.58
2018-09-28T00:17:35.504Z,101131.77
2018-09-28T00:20:03.817Z,101110.77
2018-09-28T00:22:32.137Z,101111.67
2018-09-28T00:25:00.451Z,101107.14
2018-09-28T00:27:29.334Z,101107.89
2018-09-28T00:29:57.073Z,101093.39
2018-09-28T00:32:25.962Z,101102.94
2018-09-28T00:34:54.273Z,101085.44
2018-09-28T00:37:22.602Z,101082.56
2018-09-28T00:39:50.921Z,101077.69
2018-09-28T00:42:19.039Z,101069.20
2018-09-28T00:44:47.542Z,101053.30
2018-09-28T00:47:15.857Z,101038.14
2018-09-28T00:49:43.592Z,101045.29
2018-09-28T00:52:12.478Z,101048.20
2018-09-28T00:54:40.802Z,101040.16
2018-09-28T00:57:09.105Z,101037.07
2018-09-28T00:59:37.468Z,101021.87
2018-09-28T01:02:05.862Z,101022.92
2018-09-28T01:04:34.166Z,101013.83
2018-09-28T01:07:02.583Z,101030.72
2018-09-28T01:09:30.922Z,101019.75
2018-09-28T01:11:58.657Z,101007.13
2018-09-28T01:14:26.976Z,101004.84
2018-09-28T01:16:55.288Z,101006.64
2018-09-28T01:19:24.204Z,101006.55
2018-09-28T01:21:52.520Z,100995.06
2018-09-28T01:24:20.859Z,101032.98
2018-09-28T01:26:48.603Z,100987.88
2018-09-28T01:29:17.513Z,100986.52
2018-09-28T01:31:45.816Z,100988.33
2018-09-28T01:34:13.551Z,100977.08
2018-09-28T01:36:41.862Z,100993.22
2018-09-28T01:39:10.181Z,100976.02
2018-09-28T01:41:39.083Z,100985.94
2018-09-28T01:44:06.819Z,100988.86
2018-09-28T01:46:35.707Z,101012.91
2018-09-28T01:49:03.876Z,101050.77
2018-09-28T01:51:32.338Z,101072.86
2018-09-28T01:54:00.067Z,101065.80
2018-09-28T01:56:28.957Z,101072.78
2018-09-28T01:58:57.265Z,101066.59
2018-09-28T02:01:25.588Z,101072.61
2018-09-28T02:03:53.914Z,101068.53
2018-09-28T02:06:22.247Z,101053.75
2018-09-28T02:08:49.992Z,101061.13
2018-09-28T02:11:18.885Z,101062.20
2018-09-28T02:13:46.635Z,101056.34
2018-09-28T02:16:15.537Z,101070.05
2018-09-28T02:18:43.870Z,101060.41
2018-09-28T02:21:11.629Z,101062.32
2018-09-28T02:23:40.535Z,101063.85
2018-09-28T02:26:08.283Z,101064.59
2018-09-28T02:28:36.609Z,101065.89
2018-09-28T02:31:04.932Z,101061.72
2018-09-28T02:33:33.838Z,101057.55
2018-09-28T02:36:01.580Z,101050.49
2018-09-28T02:38:30.718Z,101073.86
2018-09-28T02:40:58.807Z,101048.52
2018-09-28T02:43:27.124Z,101045.56
2018-09-28T02:45:55.450Z,101049.77
2018-09-28T02:48:23.778Z,101050.95
2018-09-28T02:50:51.529Z,101045.22
2018-09-28T02:53:20.452Z,101056.03
2018-09-28T02:55:48.178Z,101048.39
2018-09-28T02:58:17.088Z,101071.78
2018-09-28T03:00:45.417Z,101078.80
2018-09-28T03:03:13.740Z,101078.20
2018-09-28T03:05:41.492Z,101087.54
2018-09-28T03:08:09.813Z,101082.20
2018-09-28T03:10:38.124Z,101082.50
2018-09-28T03:13:07.037Z,101085.52
2018-09-28T03:15:35.352Z,101087.58
2018-09-28T03:18:03.102Z,101084.88
2018-09-28T03:20:31.426Z,101089.25
2018-09-28T03:23:00.329Z,101087.97
2018-09-28T03:25:28.636Z,101098.80
2018-09-28T03:30:24.687Z,101098.65
2018-09-28T03:32:53.591Z,101105.25
2018-09-28T03:35:21.338Z,101097.72
2018-09-28T03:37:49.669Z,101092.83
2018-09-28T03:40:18.549Z,101102.80
2018-09-28T03:42:46.297Z,101095.67
2018-09-28T03:45:15.189Z,101098.11
2018-09-28T03:47:43.503Z,101104.39
2018-09-28T03:50:11.236Z,101103.94
2018-09-28T03:52:40.129Z,101105.64
2018-09-28T03:55:08.440Z,101104.63
2018-09-28T03:57:36.185Z,101114.44
2018-09-28T04:00:05.077Z,101111.77
2018-09-28T04:02:33.390Z,101117.75
2018-09-28T04:05:01.132Z,101120.81
2018-09-28T04:07:30.025Z,101132.88
2018-09-28T04:09:57.773Z,101136.28
2018-09-28T04:12:26.709Z,101131.27
2018-09-28T04:14:54.435Z,101138.92
2018-09-28T04:17:22.727Z,101141.70
2018-09-28T04:19:51.621Z,101140.06
2018-09-28T04:22:19.361Z,101136.84
2018-09-28T04:24:48.278Z,101141.40
2018-09-28T04:27:16.597Z,101145.84
2018-09-28T04:29:44.907Z,101149.95
2018-09-28T04:32:12.637Z,101150.50
2018-09-28T04:34:41.527Z,101153.48
2018-09-28T04:37:09.263Z,101153.06
2018-09-28T04:39:38.157Z,101170.07
2018-09-28T04:42:06.466Z,101177.47
2018-09-28T04:44:34.206Z,101175.03
2018-09-28T04:47:03.129Z,101188.03
2018-09-28T04:49:30.870Z,101187.70
2018-09-28T04:51:59.191Z,101189.97
2018-09-28T04:54:28.090Z,101188.41
2018-09-28T04:56:55.818Z,101191.92
2018-09-28T04:59:24.146Z,101193.45
2018-09-28T05:01:53.035Z,101195.81
2018-09-28T05:04:21.361Z,101202.81
2018-09-28T05:06:49.696Z,101207.85
2018-09-28T05:09:18.029Z,101210.92
2018-09-28T05:11:46.354Z,101208.50
2018-09-28T05:14:14.677Z,101216.23
2018-09-28T05:16:43.000Z,101217.33
2018-09-28T05:19:11.308Z,101210.02
2018-09-28T05:21:39.629Z,101211.25
2018-09-28T05:24:07.953Z,101224.55
2018-09-28T05:26:35.709Z,101220.31
2018-09-28T05:29:04.033Z,101228.97
2018-09-28T05:31:33.010Z,101237.78
2018-09-28T05:34:01.310Z,101235.80
2018-09-28T05:36:29.623Z,101241.03
2018-09-28T05:38:57.360Z,101245.64
2018-09-28T05:41:25.684Z,101246.50
2018-09-28T05:43:54.629Z,101242.95
2018-09-28T05:46:22.933Z,101255.09
2018-09-28T05:48:51.264Z,101249.91
2018-09-28T05:51:19.023Z,101244.61
2018-09-28T05:53:47.929Z,101260.01
2018-09-28T05:56:15.661Z,101255.50
2018-09-28T05:58:44.563Z,101253.88
2018-09-28T06:01:14.286Z,101256.34
2018-09-28T06:03:43.188Z,101264.42
2018-09-28T06:06:11.506Z,101262.00
2018-09-28T06:08:39.500Z,101271.23
2018-09-28T06:11:08.171Z,101274.23
2018-09-28T06:13:35.918Z,101277.17
2018-09-28T06:16:04.818Z,101279.98
2018-09-28T06:18:33.227Z,101279.17
2018-09-28T06:21:01.495Z,101289.36
2018-09-28T06:23:29.236Z,101285.55
2018-09-28T06:25:57.602Z,101294.25
2018-09-28T06:28:25.897Z,101289.47
2018-09-28T06:30:54.811Z,101297.77
2018-09-28T06:33:23.122Z,101302.86
2018-09-28T06:35:51.476Z,101304.77
2018-09-28T06:38:19.778Z,101302.35
2018-09-28T06:40:48.146Z,101311.72
2018-09-28T06:43:16.429Z,101312.28
2018-09-28T06:45:44.776Z,101315.13
2018-09-28T06:48:12.515Z,101316.88
2018-09-28T06:50:41.414Z,101321.98
2018-09-28T06:53:09.177Z,101324.55
2018-09-28T06:55:38.086Z,101323.52
2018-09-28T06:58:06.568Z,101323.09
2018-09-28T07:00:34.855Z,101322.41
2018-09-28T07:03:03.173Z,101319.97
2018-09-28T07:05:30.919Z,101323.70
2018-09-28T07:07:59.241Z,101328.19
2018-09-28T07:10:27.553Z,101334.53
2018-09-28T07:12:55.890Z,101335.36
2018-09-28T07:15:24.794Z,101334.38
2018-09-28T07:17:52.573Z,101335.22
2018-09-28T07:20:21.451Z,101329.85
2018-09-28T07:22:49.192Z,101332.77
2018-09-28T07:25:18.191Z,101334.58
2018-09-28T07:27:46.417Z,101343.09
2018-09-28T07:30:14.773Z,101339.78
2018-09-28T07:32:42.503Z,101344.82
2018-09-28T07:35:10.818Z,101344.06
2018-09-28T07:37:39.722Z,101345.59
2018-09-28T07:40:08.046Z,101347.84
2018-09-28T07:42:36.378Z,101340.80
2018-09-28T07:45:04.689Z,101348.86
2018-09-28T07:47:32.492Z,101348.61
2018-09-28T07:50:01.399Z,101363.22
2018-09-28T07:52:29.716Z,101366.68
2018-09-28T07:54:57.464Z,101370.96
2018-09-28T07:57:26.368Z,101368.48
2018-09-28T07:59:54.679Z,101369.70
2018-09-28T08:02:23.003Z,101386.78
2018-09-28T08:04:51.338Z,101388.95
2018-09-28T08:07:19.638Z,101397.45
2018-09-28T08:09:47.986Z,101395.73
2018-09-28T08:12:16.310Z,101387.38
2018-09-28T08:14:44.629Z,101394.62
2018-09-28T08:17:12.945Z,101392.97
2018-09-28T08:19:41.275Z,101404.18
2018-09-28T08:22:09.020Z,101398.73
2018-09-28T08:24:37.967Z,101396.41
2018-09-28T08:27:05.666Z,101392.58
2018-09-28T08:29:34.564Z,101391.35
2018-09-28T08:32:02.911Z,101399.48
2018-09-28T08:34:31.241Z,101406.42
2018-09-28T08:36:58.985Z,101414.62
2018-09-28T08:39:27.893Z,101406.59
2018-09-28T08:41:55.677Z,101407.81
2018-09-28T08:44:24.534Z,101420.08
2018-09-28T08:46:52.849Z,101426.87
2018-09-28T08:49:21.257Z,101428.34
2018-09-28T08:51:49.767Z,101421.66
2018-09-28T08:54:18.357Z,101430.62
2018-09-28T08:56:46.746Z,101430.45
2018-09-28T08:59:15.075Z,101435.95
2018-09-28T09:01:43.406Z,101442.65
2018-09-28T09:04:11.719Z,101441.77
2018-09-28T09:06:40.043Z,101461.86
2018-09-28T09:09:08.367Z,101454.98
2018-09-28T09:11:36.105Z,101458.95
2018-09-28T09:14:04.415Z,101457.61
2018-09-28T09:16:32.737Z,101469.98
2018-09-28T09:19:01.652Z,101469.88
2018-09-28T09:21:29.980Z,101467.90
2018-09-28T09:23:57.777Z,101455.28
2018-09-28T09:26:26.637Z,101453.84
2018-09-28T09:28:54.941Z,101455.86
2018-09-28T09:31:22.683Z,101444.60
2018-09-28T09:33:51.596Z,101450.33
2018-09-28T09:36:19.917Z,101447.02
2018-09-28T09:38:47.676Z,101459.83
2018-09-28T09:41:16.795Z,101462.12
2018-09-28T09:43:44.314Z,101459.94
2018-09-28T09:46:13.216Z,101459.27
2018-09-28T09:48:40.956Z,101462.94
2018-09-28T09:51:09.274Z,101457.45
2018-09-28T09:53:38.652Z,101458.58
2018-09-28T09:56:06.980Z,101459.81
2018-09-28T09:58:35.295Z,101459.91
2018-09-28T10:01:03.619Z,101465.45
2018-09-28T10:03:31.953Z,101467.69
2018-09-28T10:05:59.723Z,101468.64
2018-09-28T10:08:28.625Z,101466.16
2018-09-28T10:10:56.373Z,101475.09
2018-09-28T10:13:24.748Z,101473.70
2018-09-28T10:15:53.651Z,101471.66
2018-09-28T10:18:21.965Z,101476.66
2018-09-28T10:20:49.702Z,101484.97
2018-09-28T10:23:18.028Z,101478.36
2018-09-28T10:25:47.083Z,101480.21
2018-09-28T10:28:15.446Z,101478.66
2018-09-28T10:30:43.129Z,101478.70
2018-09-28T10:33:12.032Z,101488.48
2018-09-28T10:35:40.348Z,101478.45
2018-09-28T10:38:08.708Z,101484.15
2018-09-28T10:40:37.147Z,101497.33
2018-09-28T10:43:04.802Z,101496.72
2018-09-28T10:45:33.137Z,101504.59
2018-09-28T10:48:02.047Z,101495.63
2018-09-28T10:50:29.890Z,101504.23
2018-09-28T10:52:58.141Z,101502.04
2018-09-28T10:55:26.994Z,101505.60
2018-09-28T10:57:54.736Z,101498.23
2018-09-28T11:00:23.677Z,101506.00
2018-09-28T11:02:51.960Z,101504.55
2018-09-28T11:05:20.280Z,101513.00
2018-09-28T11:07:48.615Z,101513.34
2018-09-28T11:10:16.373Z,101516.06
2018-09-28T11:12:45.250Z,101515.81
2018-09-28T11:15:13.016Z,101517.73
2018-09-28T11:17:41.347Z,101518.03
2018-09-28T11:20:10.240Z,101522.45
2018-09-28T11:22:38.553Z,101529.20
2018-09-28T11:25:06.304Z,101522.19
2018-09-28T11:27:34.681Z,101524.56
2018-09-28T11:30:03.512Z,101534.27
2018-09-28T11:32:31.825Z,101521.70
2018-09-28T11:35:00.161Z,101523.30
2018-09-28T11:37:28.547Z,101534.01
2018-09-28T11:39:56.860Z,101535.77
2018-09-28T11:42:24.595Z,101530.30
2018-09-28T11:44:53.720Z,101545.59
2018-09-28T11:47:21.237Z,101554.50
2018-09-28T11:49:50.148Z,101558.71
2018-09-28T11:52:17.889Z,101566.98
2018-09-28T11:54:46.789Z,101563.78
2018-09-28T11:57:15.122Z,101570.72
2018-09-28T11:59:42.846Z,101577.98
2018-09-28T12:02:11.755Z,101572.45
2018-09-28T12:04:40.074Z,101572.28
2018-09-28T12:07:08.480Z,101583.16
2018-09-28T12:09:36.755Z,101580.71
2018-09-28T12:12:05.062Z,101588.55
2018-09-28T12:14:32.899Z,101590.38
2018-09-28T12:17:01.227Z,101587.27
2018-09-28T12:19:29.551Z,101591.09
2018-09-28T12:21:58.462Z,101587.42
2018-09-28T12:24:26.210Z,101595.78
2018-09-28T12:26:54.518Z,101612.98
2018-09-28T12:29:23.445Z,101593.02
2018-09-28T12:31:51.775Z,101582.52
2018-09-28T12:34:20.103Z,101589.91
2018-09-28T12:36:47.848Z,101598.72
2018-09-28T12:39:16.310Z,101594.34
2018-09-28T12:41:45.087Z,101593.02
2018-09-28T12:44:12.878Z,101599.69
2018-09-28T12:46:41.176Z,101591.27
2018-09-28T12:49:10.076Z,101595.87
2018-09-28T12:51:38.434Z,101598.73
2018-09-28T12:54:06.765Z,101608.91
2018-09-28T12:56:34.536Z,101614.11
2018-09-28T12:59:02.841Z,101615.33
2018-09-28T13:01:31.161Z,101613.23
2018-09-28T13:04:00.076Z,101613.54
2018-09-28T13:06:28.467Z,101608.61
2018-09-28T13:08:56.167Z,101614.80
2018-09-28T13:11:25.056Z,101617.30
2018-09-28T13:13:53.375Z,101619.94
2018-09-28T13:16:21.933Z,101625.21
2018-09-28T13:18:50.372Z,101626.20
2018-09-28T13:21:18.009Z,101629.45
2018-09-28T13:23:46.910Z,101636.73
2018-09-28T13:26:18.615Z,101638.23
2018-09-28T13:28:46.927Z,101650.23
2018-09-28T13:31:15.465Z,101648.43
2018-09-28T13:33:43.549Z,101646.91
2018-09-28T13:36:11.319Z,101649.19
2018-09-28T13:38:40.295Z,101650.94
2018-09-28T13:41:07.953Z,101648.38
2018-09-28T13:43:36.269Z,101657.33
2018-09-28T13:46:05.202Z,101665.59
2018-09-28T13:48:32.908Z,101668.75
2018-09-28T13:51:01.812Z,101663.91
2018-09-28T13:53:30.141Z,101671.48
2018-09-28T13:55:58.455Z,101666.30
2018-09-28T13:58:26.826Z,101664.84
2018-09-28T14:00:54.508Z,101667.00
2018-09-28T14:03:22.818Z,101670.03
2018-09-28T14:05:51.725Z,101668.01
2018-09-28T14:08:20.082Z,101678.28
2018-09-28T14:10:48.432Z,101680.20
2018-09-28T14:13:16.109Z,101682.62
2018-09-28T14:15:45.013Z,101673.77
2018-09-28T14:18:13.333Z,101684.22
2018-09-28T14:20:41.677Z,101692.51
2018-09-28T14:23:09.974Z,101694.53
2018-09-28T14:25:38.285Z,101699.70
2018-09-28T14:28:06.786Z,101704.20
2018-09-28T14:30:34.919Z,101709.89
2018-09-28T14:33:02.661Z,101715.77
2018-09-28T14:35:30.993Z,101714.77
2018-09-28T14:37:59.945Z,101707.49
2018-09-28T14:40:28.342Z,101715.18
2018-09-28T14:42:56.658Z,101712.41
2018-09-28T14:45:24.997Z,101718.42
2018-09-28T14:47:53.320Z,101719.53
2018-09-28T14:50:21.695Z,101718.34
2018-09-28T14:52:50.024Z,101727.94
2018-09-28T14:55:18.288Z,101719.91
2018-09-28T14:57:46.622Z,101720.39
2018-09-28T15:00:14.424Z,101719.58
2018-09-28T15:02:43.297Z,101718.41
2018-09-28T15:05:11.607Z,101719.76
2018-09-28T15:07:39.402Z,101725.78
2018-09-28T15:10:08.280Z,101736.25
2018-09-28T15:12:36.624Z,101735.46
2018-09-28T15:15:04.898Z,101730.20
2018-09-28T15:17:32.641Z,101728.29
2018-09-28T15:20:00.959Z,101725.83
2018-09-28T15:22:29.857Z,101734.63
2018-09-28T15:24:58.199Z,101736.33
2018-09-28T15:27:26.551Z,101736.13
2018-09-28T15:29:54.882Z,101755.92
2018-09-28T15:32:22.650Z,101751.83
2018-09-28T15:34:51.553Z,101766.27
2018-09-28T15:37:19.885Z,101761.77
2018-09-28T15:39:47.632Z,101761.90
2018-09-28T15:42:16.529Z,101766.18
2018-09-28T15:44:44.893Z,101762.23
2018-09-28T15:47:13.228Z,101770.23
2018-09-28T15:49:41.550Z,101773.17
2018-09-28T15:52:09.294Z,101777.13
2018-09-28T15:54:37.635Z,101773.17
2018-09-28T15:57:06.542Z,101776.37
2018-09-28T15:59:34.874Z,101777.20
2018-09-28T16:02:03.297Z,101786.43
2018-09-28T16:04:31.388Z,101787.65
2018-09-28T16:06:59.838Z,101792.26
2018-09-28T16:09:28.155Z,101794.31
2018-09-28T16:11:56.530Z,101794.88
2018-09-28T16:14:24.806Z,101794.89
2018-09-28T16:16:53.740Z,101800.63
2018-09-28T16:19:21.461Z,101797.52
2018-09-28T16:21:49.818Z,101806.70
2018-09-28T16:24:18.137Z,101812.42
2018-09-28T16:26:45.887Z,101810.27
2018-09-28T16:29:14.806Z,101812.44
2018-09-28T16:31:43.143Z,101810.06
2018-09-28T16:34:10.950Z,101810.76
2018-09-28T16:36:39.262Z,101815.50
2018-09-28T16:39:07.561Z,101816.72
2018-09-28T16:41:36.475Z,101824.87
2018-09-28T16:44:04.809Z,101830.59
2018-09-28T16:46:32.598Z,101828.37
2018-09-28T16:49:01.862Z,101831.81
2018-09-28T16:51:29.638Z,101832.16
2018-09-28T16:53:58.553Z,101836.37
2018-09-28T16:56:26.915Z,101839.43
2018-09-28T16:58:55.258Z,101849.06
2018-09-28T17:01:23.017Z,101851.02
2018-09-28T17:03:52.219Z,101853.44
2018-09-28T17:06:20.552Z,101854.67
2018-09-28T17:08:48.372Z,101856.98
2018-09-28T17:11:17.238Z,101856.50
2018-09-28T17:13:45.798Z,101860.10
2018-09-28T17:16:13.901Z,101866.55
2018-09-28T17:18:42.234Z,101873.49
2018-09-28T17:21:10.963Z,101874.45
2018-09-28T17:23:39.301Z,101873.17
2018-09-28T17:26:07.636Z,101870.20
2018-09-28T17:28:36.036Z,101869.55
2018-09-28T17:31:04.319Z,101871.66
2018-09-28T17:33:32.661Z,101873.34
2018-09-28T17:36:01.515Z,101873.76
2018-09-28T17:38:29.561Z,101881.73
2018-09-28T17:40:57.904Z,101879.55
2018-09-28T17:43:25.661Z,101887.14
2018-09-28T17:45:54.602Z,101881.41
2018-09-28T17:48:23.964Z,101881.97
2018-09-28T17:50:51.490Z,101884.75
2018-09-28T17:53:20.435Z,101887.44
2018-09-28T17:55:48.782Z,101891.24
2018-09-28T17:58:16.510Z,101892.38
2018-09-28T18:00:45.423Z,101896.91
2018-09-28T18:03:13.775Z,101899.92
2018-09-28T18:05:42.127Z,101901.33
2018-09-28T18:08:09.926Z,101903.95
2018-09-28T18:10:38.258Z,101903.67
2018-09-28T18:13:06.607Z,101909.83
2018-09-28T18:15:34.944Z,101906.23
2018-09-28T18:18:03.891Z,101906.59
2018-09-28T18:20:32.248Z,101905.91
2018-09-28T18:23:00.591Z,101901.00
2018-09-28T18:25:28.374Z,101903.45
2018-09-28T18:27:57.286Z,101903.73
2018-09-28T18:30:25.643Z,101900.50
2018-09-28T18:32:53.973Z,101909.11
2018-09-28T18:35:21.728Z,101904.30
2018-09-28T18:37:50.057Z,101909.96
2018-09-28T18:40:18.974Z,101914.63
2018-09-28T18:42:47.304Z,101920.23
2018-09-28T18:45:15.096Z,101920.22
2018-09-28T18:47:44.035Z,101916.11
2018-09-28T18:50:12.557Z,101922.56
2018-09-28T18:52:40.626Z,101925.02
2018-09-28T18:55:09.536Z,101921.75
2018-09-28T18:57:37.515Z,101925.13
2018-09-28T19:00:06.214Z,101922.70
2018-09-28T19:02:33.985Z,101921.87
2018-09-28T19:05:02.325Z,101929.36
2018-09-28T19:07:30.659Z,101929.45
2018-09-28T19:09:58.994Z,101932.49
2018-09-28T19:12:27.963Z,101938.08
2018-09-28T19:14:56.275Z,101945.02
2018-09-28T19:17:24.607Z,101945.08
2018-09-28T19:19:52.979Z,101949.86
2018-09-28T19:22:21.326Z,101948.69
2018-09-28T19:24:49.694Z,101944.28
2018-09-28T19:27:18.033Z,101945.45
2018-09-28T19:29:46.372Z,101948.53
2018-09-28T19:32:14.123Z,101947.37
2018-09-28T19:34:43.047Z,101946.77
2018-09-28T19:37:10.861Z,101947.70
2018-09-28T19:39:39.737Z,101943.21
2018-09-28T19:42:08.289Z,101950.23
2018-09-28T19:44:36.620Z,101957.80
2018-09-28T19:47:04.731Z,101956.27
2018-09-28T19:49:33.278Z,101957.39
2018-09-28T19:52:01.046Z,101960.39
2018-09-28T19:54:29.968Z,101957.89
2018-09-28T19:56:58.318Z,101957.27
2018-09-28T19:59:26.631Z,101956.31
2018-09-28T20:01:54.959Z,101956.83
2018-09-28T20:04:23.325Z,101958.83
2018-09-28T20:06:51.086Z,101955.67
2018-09-28T20:09:19.995Z,101965.43
2018-09-28T20:11:48.329Z,101969.02
2018-09-28T20:14:16.827Z,101971.71
2018-09-28T20:16:45.173Z,101981.70
2018-09-28T20:19:13.515Z,101989.31
2018-09-28T20:21:41.958Z,102004.33
2018-09-28T20:24:10.294Z,101989.34
2018-09-28T20:26:38.593Z,101987.54
2018-09-28T20:29:06.968Z,101983.90
2018-09-28T20:31:35.315Z,101985.02
2018-09-28T20:34:03.068Z,101986.30
2018-09-28T20:36:31.390Z,101986.04
2018-09-28T20:39:00.347Z,101990.81
2018-09-28T20:41:28.675Z,101997.13
2018-09-28T20:43:57.003Z,101998.97
2018-09-28T20:46:25.347Z,101997.27
2018-09-28T20:48:53.695Z,101996.82
2018-09-28T20:51:22.002Z,101996.47
2018-09-28T20:53:50.396Z,102003.52
2018-09-28T20:56:18.751Z,102004.59
2018-09-28T20:58:47.089Z,102011.82
2018-09-28T21:01:14.825Z,102013.16
2018-09-28T21:03:43.146Z,102019.71
2018-09-28T21:06:12.058Z,102023.58
2018-09-28T21:08:39.789Z,102028.97
2018-09-28T21:11:08.109Z,102036.22
2018-09-28T21:13:37.069Z,102039.95
2018-09-28T21:16:05.338Z,102043.25
2018-09-28T21:18:33.085Z,102050.66
2018-09-28T21:21:01.415Z,102046.77
2018-09-28T21:23:29.745Z,102051.78
2018-09-28T21:25:58.653Z,102055.66
2018-09-28T21:28:26.983Z,102059.94
2018-09-28T21:30:54.738Z,102065.27
2018-09-28T21:33:23.072Z,102068.30
2018-09-28T21:35:51.392Z,102070.30
2018-09-28T21:38:20.291Z,102070.07
2018-09-28T21:40:48.611Z,102069.48
2018-09-28T21:43:16.949Z,102076.60
2018-09-28T21:45:45.264Z,102081.13
2018-09-28T21:48:13.004Z,102082.20
2018-09-28T21:50:41.922Z,102083.70
2018-09-28T21:53:10.267Z,102090.53
2018-09-28T21:55:38.592Z,102088.34
2018-09-28T21:58:06.938Z,102086.34
2018-09-28T22:00:35.262Z,102096.04
2018-09-28T22:03:03.575Z,102098.31
2018-09-28T22:05:31.894Z,102105.51
2018-09-28T22:08:00.217Z,102104.45
2018-09-28T22:10:28.544Z,102109.87
2018-09-28T22:12:56.284Z,102107.16
2018-09-28T22:15:25.199Z,102112.23
2018-09-28T22:17:53.518Z,102111.17
2018-09-28T22:20:21.685Z,102110.38
2018-09-28T22:22:49.587Z,102113.28
2018-09-28T22:25:18.488Z,102118.55
2018-09-28T22:27:46.808Z,102117.41
2018-09-28T22:30:15.126Z,102122.80
2018-09-28T22:32:43.450Z,102126.62
2018-09-28T22:35:11.777Z,102124.61
2018-09-28T22:37:40.101Z,102121.55
2018-09-28T22:40:08.424Z,102126.88
2018-09-28T22:42:36.171Z,102134.02
2018-09-28T22:45:05.076Z,102132.48
2018-09-28T22:47:32.823Z,102132.75
2018-09-28T22:50:01.723Z,102136.60
2018-09-28T22:52:30.037Z,102132.17
2018-09-28T22:54:58.364Z,102131.34
2018-09-28T22:57:26.695Z,102135.98
2018-09-28T22:59:55.016Z,102137.46
2018-09-28T23:02:23.362Z,102137.62
2018-09-28T23:04:51.692Z,102137.85
2018-09-28T23:07:20.011Z,102141.23
2018-09-28T23:09:48.591Z,102152.34
2018-09-28T23:12:16.908Z,102161.06
2018-09-28T23:14:45.245Z,102161.91
2018-09-28T23:17:12.988Z,102164.87
2018-09-28T23:19:41.316Z,102167.25
2018-09-28T23:22:09.645Z,102176.20
2018-09-28T23:24:37.960Z,102179.27
2018-09-28T23:27:06.875Z,102175.87
2018-09-28T23:29:35.192Z,102181.73
2018-09-28T23:32:02.926Z,102182.32
2018-09-28T23:34:31.822Z,102183.91
2018-09-28T23:37:00.140Z,102189.92
2018-09-28T23:39:28.452Z,102196.34
2018-09-28T23:41:56.181Z,102198.41
2018-09-28T23:44:24.516Z,102196.45
2018-09-28T23:46:53.419Z,102199.70
2018-09-28T23:49:21.197Z,102202.94
2018-09-28T23:51:49.515Z,102203.99
2018-09-28T23:54:17.838Z,102197.47
2018-09-28T23:56:46.735Z,102200.64
2018-09-28T23:59:14.694Z,102198.12
